sensor_id;sensor_type;location;lat;lon;timestamp;pressure;altitude;pressure_sealevel;temperature;humidity
6128;BME280;7073;42.672;23.256;2023-04-03T04:40:43;93767.84;;;7.03;96.05
6128;BME280;7073;42.672;23.256;2023-04-03T04:43:10;93767.09;;;7.27;95.80
6128;BME280;7073;42.672;23.256;2023-04-03T04:45:39;93765.91;;;7.29;95.53
6128;BME280;7073;42.672;23.256;2023-04-03T04:48:07;93770.63;;;7.64;93.87
6128;BME280;7073;42.672;23.256;2023-04-03T04:50:33;93774.94;;;7.70;92.81
6128;BME280;7073;42.672;23.256;2023-04-03T04:53:00;93766.34;;;7.76;91.66
6128;BME280;7073;42.672;23.256;2023-04-03T04:55:27;93784.75;;;7.68;91.95
6128;BME280;7073;42.672;23.256;2023-04-03T04:57:55;93784.19;;;7.59;92.80
6128;BME280;7073;42.672;23.256;2023-04-03T05:00:22;93759.19;;;7.71;92.79
6128;BME280;7073;42.672;23.256;2023-04-03T05:02:50;93761.69;;;7.84;91.88
6128;BME280;7073;42.672;23.256;2023-04-03T05:05:16;93780.72;;;7.96;92.60
6128;BME280;7073;42.672;23.256;2023-04-03T05:07:43;93790.03;;;8.22;91.18
6128;BME280;7073;42.672;23.256;2023-04-03T05:10:10;93785.97;;;8.33;91.37
6128;BME280;7073;42.672;23.256;2023-04-03T05:12:37;93780.59;;;8.10;91.85
6128;BME280;7073;42.672;23.256;2023-04-03T05:15:06;93791.78;;;8.53;91.68
6128;BME280;7073;42.672;23.256;2023-04-03T05:17:33;93800.56;;;8.70;89.71
6128;BME280;7073;42.672;23.256;2023-04-03T05:20:01;93804.31;;;8.74;89.77
6128;BME280;7073;42.672;23.256;2023-04-03T05:22:28;93801.28;;;8.95;89.21
6128;BME280;7073;42.672;23.256;2023-04-03T05:24:55;93802.63;;;8.80;89.27
6128;BME280;7073;42.672;23.256;2023-04-03T05:27:22;93804.66;;;8.78;90.35
6128;BME280;7073;42.672;23.256;2023-04-03T05:29:49;93801.66;;;9.10;89.50
6128;BME280;7073;42.672;23.256;2023-04-03T05:32:17;93810.28;;;9.22;87.78
6128;BME280;7073;42.672;23.256;2023-04-03T05:34:45;93806.88;;;9.40;87.11
6128;BME280;7073;42.672;23.256;2023-04-03T05:37:12;93804.63;;;9.44;86.60
6128;BME280;7073;42.672;23.256;2023-04-03T05:39:40;93790.91;;;9.66;86.11
6128;BME280;7073;42.672;23.256;2023-04-03T05:42:07;93803.47;;;9.81;85.85
6128;BME280;7073;42.672;23.256;2023-04-03T05:44:34;93810.19;;;10.00;85.25
6128;BME280;7073;42.672;23.256;2023-04-03T05:47:01;93812.78;;;10.12;84.65
6128;BME280;7073;42.672;23.256;2023-04-03T05:49:29;93783.22;;;9.83;84.43
6128;BME280;7073;42.672;23.256;2023-04-03T05:51:56;93797.03;;;9.95;84.96
6128;BME280;7073;42.672;23.256;2023-04-03T05:54:25;93795.44;;;9.71;86.03
6128;BME280;7073;42.672;23.256;2023-04-03T05:56:52;93795.69;;;10.04;83.97
6128;BME280;7073;42.672;23.256;2023-04-03T05:59:20;93791.44;;;10.21;83.65
6128;BME280;7073;42.672;23.256;2023-04-03T06:01:47;93794.50;;;9.24;85.11
6128;BME280;7073;42.672;23.256;2023-04-03T06:04:14;93793.22;;;9.45;83.67
6128;BME280;7073;42.672;23.256;2023-04-03T06:06:47;93795.63;;;9.58;82.17
6128;BME280;7073;42.672;23.256;2023-04-03T06:09:15;93791.47;;;9.68;81.61
6128;BME280;7073;42.672;23.256;2023-04-03T06:11:42;93781.88;;;9.39;84.22
6128;BME280;7073;42.672;23.256;2023-04-03T06:14:09;93775.94;;;9.50;82.34
6128;BME280;7073;42.672;23.256;2023-04-03T06:16:36;93771.78;;;9.61;81.65
6128;BME280;7073;42.672;23.256;2023-04-03T06:19:04;93750.78;;;9.33;82.60
6128;BME280;7073;42.672;23.256;2023-04-03T06:21:39;93776.00;;;10.08;80.47
6128;BME280;7073;42.672;23.256;2023-04-03T06:24:08;93784.59;;;9.97;79.67
6128;BME280;7073;42.672;23.256;2023-04-03T06:26:36;93784.88;;;10.19;79.00
6128;BME280;7073;42.672;23.256;2023-04-03T06:29:02;93791.00;;;10.24;79.33
6128;BME280;7073;42.672;23.256;2023-04-03T06:31:30;93773.31;;;10.03;78.80
6128;BME280;7073;42.672;23.256;2023-04-03T06:33:56;93782.13;;;10.25;77.48
6128;BME280;7073;42.672;23.256;2023-04-03T06:36:23;93778.97;;;10.23;77.91
6128;BME280;7073;42.672;23.256;2023-04-03T06:38:50;93787.25;;;10.20;78.21
6128;BME280;7073;42.672;23.256;2023-04-03T06:41:19;93784.28;;;10.17;79.17
6128;BME280;7073;42.672;23.256;2023-04-03T06:43:46;93792.31;;;10.38;77.42
6128;BME280;7073;42.672;23.256;2023-04-03T06:46:14;93785.09;;;10.17;78.66
6128;BME280;7073;42.672;23.256;2023-04-03T06:48:43;93780.75;;;10.46;77.85
6128;BME280;7073;42.672;23.256;2023-04-03T06:51:21;93784.63;;;10.43;77.35
6128;BME280;7073;42.672;23.256;2023-04-03T06:53:49;93794.13;;;10.15;78.82
6128;BME280;7073;42.672;23.256;2023-04-03T06:56:16;93803.63;;;10.44;78.18
6128;BME280;7073;42.672;23.256;2023-04-03T06:58:45;93801.94;;;10.61;76.64
6128;BME280;7073;42.672;23.256;2023-04-03T07:01:13;93806.50;;;10.94;76.26
6128;BME280;7073;42.672;23.256;2023-04-03T07:03:41;93806.72;;;10.29;77.96
6128;BME280;7073;42.672;23.256;2023-04-03T07:06:10;93802.81;;;10.67;77.12
6128;BME280;7073;42.672;23.256;2023-04-03T07:08:38;93791.72;;;10.60;75.86
6128;BME280;7073;42.672;23.256;2023-04-03T07:11:05;93806.50;;;10.94;74.62
6128;BME280;7073;42.672;23.256;2023-04-03T07:13:32;93801.22;;;11.17;73.80
6128;BME280;7073;42.672;23.256;2023-04-03T07:16:00;93790.72;;;11.57;72.41
6128;BME280;7073;42.672;23.256;2023-04-03T07:18:28;93789.16;;;11.56;71.18
6128;BME280;7073;42.672;23.256;2023-04-03T07:20:55;93791.44;;;10.96;72.62
6128;BME280;7073;42.672;23.256;2023-04-03T07:23:22;93787.69;;;11.03;74.20
6128;BME280;7073;42.672;23.256;2023-04-03T07:25:50;93786.78;;;11.54;72.05
6128;BME280;7073;42.672;23.256;2023-04-03T07:28:18;93794.84;;;11.53;71.42
6128;BME280;7073;42.672;23.256;2023-04-03T07:30:47;93782.78;;;11.35;70.75
6128;BME280;7073;42.672;23.256;2023-04-03T07:33:16;93762.69;;;11.19;70.14
6128;BME280;7073;42.672;23.256;2023-04-03T07:35:43;93783.47;;;11.59;68.82
6128;BME280;7073;42.672;23.256;2023-04-03T07:38:11;93783.97;;;11.73;68.44
6128;BME280;7073;42.672;23.256;2023-04-03T07:40:38;93762.91;;;11.62;68.58
6128;BME280;7073;42.672;23.256;2023-04-03T07:43:06;93771.13;;;11.54;69.72
6128;BME280;7073;42.672;23.256;2023-04-03T07:45:35;93764.63;;;12.02;67.65
6128;BME280;7073;42.672;23.256;2023-04-03T07:48:02;93760.84;;;11.93;67.23
6128;BME280;7073;42.672;23.256;2023-04-03T07:50:32;93759.06;;;12.15;66.43
6128;BME280;7073;42.672;23.256;2023-04-03T07:52:59;93749.03;;;12.23;66.22
6128;BME280;7073;42.672;23.256;2023-04-03T07:55:26;93764.72;;;11.74;67.92
6128;BME280;7073;42.672;23.256;2023-04-03T07:57:52;93760.84;;;11.93;66.17
6128;BME280;7073;42.672;23.256;2023-04-03T08:00:19;93750.34;;;12.43;65.75
6128;BME280;7073;42.672;23.256;2023-04-03T08:02:46;93739.34;;;12.84;65.15
6128;BME280;7073;42.672;23.256;2023-04-03T08:05:16;93752.84;;;12.76;64.38
6128;BME280;7073;42.672;23.256;2023-04-03T08:07:44;93757.22;;;12.70;64.73
6128;BME280;7073;42.672;23.256;2023-04-03T08:10:11;93754.94;;;12.96;63.09
6128;BME280;7073;42.672;23.256;2023-04-03T08:12:38;93751.50;;;12.73;64.13
6128;BME280;7073;42.672;23.256;2023-04-03T08:15:06;93740.94;;;12.85;63.92
6128;BME280;7073;42.672;23.256;2023-04-03T08:17:33;93756.13;;;13.31;61.92
6128;BME280;7073;42.672;23.256;2023-04-03T08:20:00;93741.91;;;12.57;64.06
6128;BME280;7073;42.672;23.256;2023-04-03T08:22:27;93749.41;;;12.54;64.45
6128;BME280;7073;42.672;23.256;2023-04-03T08:24:55;93745.19;;;13.13;63.71
6128;BME280;7073;42.672;23.256;2023-04-03T08:27:22;93743.53;;;13.28;62.75
6128;BME280;7073;42.672;23.256;2023-04-03T08:29:49;93747.00;;;13.34;62.93
6128;BME280;7073;42.672;23.256;2023-04-03T08:32:16;93738.16;;;13.40;62.07
6128;BME280;7073;42.672;23.256;2023-04-03T08:34:43;93746.34;;;13.48;60.83
6128;BME280;7073;42.672;23.256;2023-04-03T08:37:10;93740.94;;;13.60;60.37
6128;BME280;7073;42.672;23.256;2023-04-03T08:39:37;93736.28;;;13.99;58.05
6128;BME280;7073;42.672;23.256;2023-04-03T08:42:14;93731.63;;;13.42;60.55
6128;BME280;7073;42.672;23.256;2023-04-03T08:44:47;93726.03;;;13.92;58.13
6128;BME280;7073;42.672;23.256;2023-04-03T08:47:23;93731.75;;;13.84;57.30
6128;BME280;7073;42.672;23.256;2023-04-03T08:49:53;93734.38;;;14.26;56.08
6128;BME280;7073;42.672;23.256;2023-04-03T08:52:28;93730.56;;;14.39;54.98
6128;BME280;7073;42.672;23.256;2023-04-03T08:55:00;93730.53;;;14.34;55.31
6128;BME280;7073;42.672;23.256;2023-04-03T08:57:33;93726.75;;;14.56;53.99
6128;BME280;7073;42.672;23.256;2023-04-03T09:00:04;93719.03;;;14.35;55.83
6128;BME280;7073;42.672;23.256;2023-04-03T09:02:34;93707.84;;;13.76;57.60
6128;BME280;7073;42.672;23.256;2023-04-03T09:05:11;93709.44;;;14.14;57.27
6128;BME280;7073;42.672;23.256;2023-04-03T09:07:43;93704.22;;;14.60;55.88
6128;BME280;7073;42.672;23.256;2023-04-03T09:10:12;93703.47;;;14.75;53.81
6128;BME280;7073;42.672;23.256;2023-04-03T09:12:42;93703.53;;;14.85;53.47
6128;BME280;7073;42.672;23.256;2023-04-03T09:15:18;93702.97;;;14.78;54.07
6128;BME280;7073;42.672;23.256;2023-04-03T09:17:57;93692.94;;;14.60;54.81
6128;BME280;7073;42.672;23.256;2023-04-03T09:20:33;93690.44;;;14.33;55.17
6128;BME280;7073;42.672;23.256;2023-04-03T09:23:14;93639.22;;;14.10;55.17
6128;BME280;7073;42.672;23.256;2023-04-03T09:25:42;93679.75;;;14.40;55.46
6128;BME280;7073;42.672;23.256;2023-04-03T09:28:11;93683.84;;;14.83;54.40
6128;BME280;7073;42.672;23.256;2023-04-03T09:30:38;93677.63;;;15.04;53.34
6128;BME280;7073;42.672;23.256;2023-04-03T09:33:05;93674.13;;;14.83;54.51
6128;BME280;7073;42.672;23.256;2023-04-03T09:35:33;93675.75;;;14.99;52.54
6128;BME280;7073;42.672;23.256;2023-04-03T09:38:14;93673.56;;;14.66;53.47
6128;BME280;7073;42.672;23.256;2023-04-03T09:40:42;93674.13;;;14.83;54.15
6128;BME280;7073;42.672;23.256;2023-04-03T09:43:28;93665.56;;;15.08;53.51
6128;BME280;7073;42.672;23.256;2023-04-03T09:46:15;93661.13;;;15.23;53.08
6128;BME280;7073;42.672;23.256;2023-04-03T09:48:50;93663.50;;;15.45;51.03
6128;BME280;7073;42.672;23.256;2023-04-03T09:51:17;93644.34;;;15.40;50.23
6128;BME280;7073;42.672;23.256;2023-04-03T09:53:45;93658.28;;;15.65;49.91
6128;BME280;7073;42.672;23.256;2023-04-03T09:56:20;93657.97;;;15.37;50.45
6128;BME280;7073;42.672;23.256;2023-04-03T09:58:51;93652.47;;;15.43;51.05
6128;BME280;7073;42.672;23.256;2023-04-03T10:01:25;93646.16;;;15.39;50.08
6128;BME280;7073;42.672;23.256;2023-04-03T10:04:07;93655.38;;;15.47;49.86
6128;BME280;7073;42.672;23.256;2023-04-03T10:06:36;93653.25;;;15.33;50.33
6128;BME280;7073;42.672;23.256;2023-04-03T10:09:16;93650.94;;;15.77;49.43
6128;BME280;7073;42.672;23.256;2023-04-03T10:11:58;93641.19;;;15.83;49.48
6128;BME280;7073;42.672;23.256;2023-04-03T10:14:28;93638.81;;;15.91;49.46
6128;BME280;7073;42.672;23.256;2023-04-03T10:17:02;93641.19;;;15.78;49.63
6128;BME280;7073;42.672;23.256;2023-04-03T10:19:35;93644.88;;;15.52;49.62
6128;BME280;7073;42.672;23.256;2023-04-03T10:22:15;93644.38;;;15.50;49.42
6128;BME280;7073;42.672;23.256;2023-04-03T10:24:52;93632.81;;;15.46;49.52
6128;BME280;7073;42.672;23.256;2023-04-03T10:27:43;93634.13;;;15.63;48.69
6128;BME280;7073;42.672;23.256;2023-04-03T10:30:23;93626.00;;;15.50;49.74
6128;BME280;7073;42.672;23.256;2023-04-03T10:33:05;93626.25;;;15.58;48.39
6128;BME280;7073;42.672;23.256;2023-04-03T10:35:44;93622.31;;;15.51;48.51
6128;BME280;7073;42.672;23.256;2023-04-03T10:38:18;93622.81;;;15.78;48.43
6128;BME280;7073;42.672;23.256;2023-04-03T10:40:52;93611.25;;;15.84;48.34
6128;BME280;7073;42.672;23.256;2023-04-03T10:43:27;93616.78;;;15.67;49.29
6128;BME280;7073;42.672;23.256;2023-04-03T10:46:04;93608.66;;;15.69;48.22
6128;BME280;7073;42.672;23.256;2023-04-03T10:48:42;93606.00;;;15.79;48.88
6128;BME280;7073;42.672;23.256;2023-04-03T10:51:18;93609.97;;;15.76;48.51
6128;BME280;7073;42.672;23.256;2023-04-03T10:53:54;93607.59;;;15.65;49.14
6128;BME280;7073;42.672;23.256;2023-04-03T10:56:30;93606.56;;;15.61;49.60
6128;BME280;7073;42.672;23.256;2023-04-03T10:59:03;93606.06;;;15.54;49.07
6128;BME280;7073;42.672;23.256;2023-04-03T11:01:38;93610.75;;;15.47;48.67
6128;BME280;7073;42.672;23.256;2023-04-03T11:04:08;93618.09;;;15.40;49.92
6128;BME280;7073;42.672;23.256;2023-04-03T11:06:39;93606.53;;;15.30;50.56
6128;BME280;7073;42.672;23.256;2023-04-03T11:09:13;93609.16;;;15.10;51.71
6128;BME280;7073;42.672;23.256;2023-04-03T11:11:45;93616.50;;;15.13;51.45
6128;BME280;7073;42.672;23.256;2023-04-03T11:14:18;93617.53;;;15.12;52.75
6128;BME280;7073;42.672;23.256;2023-04-03T11:16:55;93612.22;;;14.67;55.58
6128;BME280;7073;42.672;23.256;2023-04-03T11:19:34;93614.75;;;14.47;55.10
6128;BME280;7073;42.672;23.256;2023-04-03T11:22:06;93603.75;;;14.45;57.90
6128;BME280;7073;42.672;23.256;2023-04-03T11:24:39;93604.34;;;14.05;58.17
6128;BME280;7073;42.672;23.256;2023-04-03T11:27:15;93612.50;;;14.14;60.84
6128;BME280;7073;42.672;23.256;2023-04-03T11:29:43;93606.13;;;13.94;64.69
6128;BME280;7073;42.672;23.256;2023-04-03T11:32:31;93595.06;;;13.82;69.46
6128;BME280;7073;42.672;23.256;2023-04-03T11:35:05;93599.13;;;14.10;69.18
6128;BME280;7073;42.672;23.256;2023-04-03T11:37:35;93596.16;;;13.49;75.67
6128;BME280;7073;42.672;23.256;2023-04-03T11:40:05;93590.41;;;13.16;76.67
6128;BME280;7073;42.672;23.256;2023-04-03T11:42:37;93585.34;;;13.41;79.32
6128;BME280;7073;42.672;23.256;2023-04-03T11:45:34;93587.25;;;13.14;78.54
6128;BME280;7073;42.672;23.256;2023-04-03T11:48:05;93579.53;;;13.29;79.46
6128;BME280;7073;42.672;23.256;2023-04-03T11:50:43;93589.13;;;13.18;82.42
6128;BME280;7073;42.672;23.256;2023-04-03T11:53:31;93583.13;;;12.96;82.08
6128;BME280;7073;42.672;23.256;2023-04-03T11:56:00;93590.28;;;12.74;83.80
6128;BME280;7073;42.672;23.256;2023-04-03T11:58:29;93590.44;;;12.67;83.59
6128;BME280;7073;42.672;23.256;2023-04-03T12:01:10;93588.69;;;12.73;84.77
6128;BME280;7073;42.672;23.256;2023-04-03T12:07:08;93593.78;;;12.84;86.07
6128;BME280;7073;42.672;23.256;2023-04-03T12:10:14;93588.53;;;12.58;87.45
6128;BME280;7073;42.672;23.256;2023-04-03T12:12:43;93592.78;;;12.64;89.42
6128;BME280;7073;42.672;23.256;2023-04-03T12:15:44;93585.09;;;12.31;91.52
6128;BME280;7073;42.672;23.256;2023-04-03T12:21:18;93575.75;;;12.13;93.68
6128;BME280;7073;42.672;23.256;2023-04-03T12:24:23;93571.56;;;12.34;94.50
6128;BME280;7073;42.672;23.256;2023-04-03T12:27:05;93565.81;;;12.10;95.20
6128;BME280;7073;42.672;23.256;2023-04-03T12:29:39;93564.28;;;11.92;97.07
6128;BME280;7073;42.672;23.256;2023-04-03T12:32:17;93565.03;;;11.88;98.89
6128;BME280;7073;42.672;23.256;2023-04-03T12:34:58;93558.81;;;11.94;98.31
6128;BME280;7073;42.672;23.256;2023-04-03T12:37:40;93551.81;;;11.78;99.85
6128;BME280;7073;42.672;23.256;2023-04-03T12:40:17;93550.22;;;11.72;100.00
6128;BME280;7073;42.672;23.256;2023-04-03T12:43:02;93554.38;;;11.73;99.92
6128;BME280;7073;42.672;23.256;2023-04-03T12:45:40;93545.13;;;11.65;100.00
6128;BME280;7073;42.672;23.256;2023-04-03T12:48:14;93529.63;;;11.75;100.00
6128;BME280;7073;42.672;23.256;2023-04-03T12:50:43;93527.69;;;11.49;100.00
6128;BME280;7073;42.672;23.256;2023-04-03T12:53:13;93527.28;;;11.57;100.00
6128;BME280;7073;42.672;23.256;2023-04-03T12:55:43;93526.28;;;11.41;100.00
6128;BME280;7073;42.672;23.256;2023-04-03T12:58:15;93522.03;;;11.35;100.00
6128;BME280;7073;42.672;23.256;2023-04-03T13:00:43;93532.94;;;11.32;100.00
6128;BME280;7073;42.672;23.256;2023-04-03T13:03:22;93526.63;;;11.12;100.00
6128;BME280;7073;42.672;23.256;2023-04-03T13:05:50;93529.56;;;11.32;100.00
6128;BME280;7073;42.672;23.256;2023-04-03T13:08:17;93528.47;;;10.94;100.00
6128;BME280;7073;42.672;23.256;2023-04-03T13:10:54;93526.88;;;11.10;100.00
6128;BME280;7073;42.672;23.256;2023-04-03T13:13:22;93517.88;;;11.18;100.00
6128;BME280;7073;42.672;23.256;2023-04-03T13:15:50;93516.06;;;11.01;100.00
6128;BME280;7073;42.672;23.256;2023-04-03T13:18:27;93514.44;;;10.95;100.00
6128;BME280;7073;42.672;23.256;2023-04-03T13:20:59;93522.72;;;10.76;100.00
6128;BME280;7073;42.672;23.256;2023-04-03T13:23:28;93503.28;;;10.67;100.00
6128;BME280;7073;42.672;23.256;2023-04-03T13:25:58;93507.63;;;10.78;100.00
6128;BME280;7073;42.672;23.256;2023-04-03T13:28:29;93514.09;;;10.75;100.00
6128;BME280;7073;42.672;23.256;2023-04-03T13:31:02;93513.63;;;10.62;100.00
6128;BME280;7073;42.672;23.256;2023-04-03T13:33:32;93515.44;;;10.61;100.00
6128;BME280;7073;42.672;23.256;2023-04-03T13:36:05;93511.66;;;10.69;100.00
6128;BME280;7073;42.672;23.256;2023-04-03T13:38:33;93505.25;;;10.76;100.00
6128;BME280;7073;42.672;23.256;2023-04-03T13:41:05;93509.44;;;10.77;100.00
6128;BME280;7073;42.672;23.256;2023-04-03T13:43:48;93517.81;;;10.63;100.00
6128;BME280;7073;42.672;23.256;2023-04-03T13:46:24;93511.50;;;10.75;100.00
6128;BME280;7073;42.672;23.256;2023-04-03T13:48:53;93506.03;;;10.60;100.00
6128;BME280;7073;42.672;23.256;2023-04-03T13:51:22;93508.56;;;10.55;100.00
6128;BME280;7073;42.672;23.256;2023-04-03T13:53:52;93482.44;;;10.50;100.00
6128;BME280;7073;42.672;23.256;2023-04-03T13:56:25;93499.97;;;10.55;100.00
6128;BME280;7073;42.672;23.256;2023-04-03T13:58:55;93488.13;;;10.47;100.00
6128;BME280;7073;42.672;23.256;2023-04-03T14:01:23;93488.44;;;10.51;100.00
6128;BME280;7073;42.672;23.256;2023-04-03T14:03:54;93496.41;;;10.44;100.00
6128;BME280;7073;42.672;23.256;2023-04-03T14:06:22;93489.63;;;10.60;100.00
6128;BME280;7073;42.672;23.256;2023-04-03T14:08:49;93493.66;;;10.51;100.00
6128;BME280;7073;42.672;23.256;2023-04-03T14:11:17;93495.22;;;10.52;100.00
6128;BME280;7073;42.672;23.256;2023-04-03T14:13:48;93490.56;;;10.54;100.00
6128;BME280;7073;42.672;23.256;2023-04-03T14:16:18;93489.53;;;10.38;100.00
6128;BME280;7073;42.672;23.256;2023-04-03T14:18:45;93493.47;;;10.40;100.00
6128;BME280;7073;42.672;23.256;2023-04-03T14:21:14;93488.75;;;10.37;100.00
6128;BME280;7073;42.672;23.256;2023-04-03T14:23:41;66884.56;;;-143.30;100.00
6128;BME280;7073;42.672;23.256;2023-04-03T14:26:12;66884.56;;;-143.30;100.00
6128;BME280;7073;42.672;23.256;2023-04-03T14:28:39;66884.56;;;-143.30;100.00
6128;BME280;7073;42.672;23.256;2023-04-03T14:31:08;66884.56;;;-143.30;100.00
6128;BME280;7073;42.672;23.256;2023-04-03T14:33:36;93488.75;;;10.37;100.00
6128;BME280;7073;42.672;23.256;2023-04-03T14:36:12;93488.75;;;10.37;100.00
6128;BME280;7073;42.672;23.256;2023-04-03T14:41:06;93465.47;;;10.48;100.00
6128;BME280;7073;42.672;23.256;2023-04-03T14:43:33;93468.47;;;10.39;100.00
6128;BME280;7073;42.672;23.256;2023-04-03T14:46:00;93473.06;;;10.32;100.00
6128;BME280;7073;42.672;23.256;2023-04-03T14:48:28;93463.03;;;10.24;100.00
6128;BME280;7073;42.672;23.256;2023-04-03T14:50:56;93463.03;;;10.24;100.00
6128;BME280;7073;42.672;23.256;2023-04-03T14:53:23;93463.03;;;10.24;100.00
6128;BME280;7073;42.672;23.256;2023-04-03T14:55:50;66884.56;;;-143.30;100.00
6128;BME280;7073;42.672;23.256;2023-04-03T14:58:19;93476.69;;;10.03;100.00
6128;BME280;7073;42.672;23.256;2023-04-03T15:00:47;93465.31;;;10.09;100.00
6128;BME280;7073;42.672;23.256;2023-04-03T15:03:15;93458.84;;;10.12;100.00
6128;BME280;7073;42.672;23.256;2023-04-03T15:05:44;93452.75;;;10.18;100.00
6128;BME280;7073;42.672;23.256;2023-04-03T15:08:18;93437.94;;;10.07;100.00
6128;BME280;7073;42.672;23.256;2023-04-03T15:10:46;93458.56;;;10.08;100.00
6128;BME280;7073;42.672;23.256;2023-04-03T15:13:14;93459.53;;;10.19;100.00
6128;BME280;7073;42.672;23.256;2023-04-03T15:15:41;93434.09;;;10.09;100.00
6128;BME280;7073;42.672;23.256;2023-04-03T15:18:31;93452.41;;;10.14;100.00
6128;BME280;7073;42.672;23.256;2023-04-03T15:21:02;93415.78;;;10.04;100.00
6128;BME280;7073;42.672;23.256;2023-04-03T15:23:41;93404.97;;;9.79;100.00
6128;BME280;7073;42.672;23.256;2023-04-03T15:26:14;93443.25;;;10.12;100.00
6128;BME280;7073;42.672;23.256;2023-04-03T15:29:21;93377.38;;;9.78;100.00
6128;BME280;7073;42.672;23.256;2023-04-03T15:31:52;93445.09;;;10.28;100.00
6128;BME280;7073;42.672;23.256;2023-04-03T15:34:32;93445.09;;;10.28;100.00
6128;BME280;7073;42.672;23.256;2023-04-03T15:37:01;93433.66;;;10.12;100.00
6128;BME280;7073;42.672;23.256;2023-04-03T15:39:33;93375.88;;;9.99;100.00
6128;BME280;7073;42.672;23.256;2023-04-03T15:42:00;93413.97;;;10.05;100.00
6128;BME280;7073;42.672;23.256;2023-04-03T15:44:33;93351.75;;;9.70;100.00
6128;BME280;7073;42.672;23.256;2023-04-03T15:47:03;93421.88;;;10.10;100.00
6128;BME280;7073;42.672;23.256;2023-04-03T15:49:36;93411.19;;;10.23;100.00
6128;BME280;7073;42.672;23.256;2023-04-03T15:52:10;93396.22;;;10.02;100.00
6128;BME280;7073;42.672;23.256;2023-04-03T15:54:38;93407.09;;;9.99;100.00
6128;BME280;7073;42.672;23.256;2023-04-03T15:57:05;93405.06;;;10.29;100.00
6128;BME280;7073;42.672;23.256;2023-04-03T15:59:32;93403.44;;;10.11;100.00
6128;BME280;7073;42.672;23.256;2023-04-03T16:01:59;93403.47;;;10.28;100.00
6128;BME280;7073;42.672;23.256;2023-04-03T16:04:28;93396.19;;;10.30;100.00
6128;BME280;7073;42.672;23.256;2023-04-03T16:06:55;93394.00;;;10.22;100.00
6128;BME280;7073;42.672;23.256;2023-04-03T16:09:23;93394.38;;;10.30;100.00
6128;BME280;7073;42.672;23.256;2023-04-03T16:11:50;93396.28;;;10.18;100.00
6128;BME280;7073;42.672;23.256;2023-04-03T16:14:17;93389.81;;;10.21;100.00
6128;BME280;7073;42.672;23.256;2023-04-03T16:16:43;93406.97;;;10.05;100.00
6128;BME280;7073;42.672;23.256;2023-04-03T16:19:10;93395.78;;;10.05;100.00
6128;BME280;7073;42.672;23.256;2023-04-03T16:21:38;93390.56;;;10.05;100.00
6128;BME280;7073;42.672;23.256;2023-04-03T16:24:05;93390.56;;;10.05;100.00
6128;BME280;7073;42.672;23.256;2023-04-03T16:26:33;93378.66;;;10.09;100.00
6128;BME280;7073;42.672;23.256;2023-04-03T16:29:00;93378.88;;;9.91;100.00
6128;BME280;7073;42.672;23.256;2023-04-03T16:31:27;93385.34;;;9.88;100.00
6128;BME280;7073;42.672;23.256;2023-04-03T16:33:55;93381.56;;;9.96;100.00
6128;BME280;7073;42.672;23.256;2023-04-03T16:36:23;93369.34;;;9.79;100.00
6128;BME280;7073;42.672;23.256;2023-04-03T16:38:52;93369.34;;;9.79;100.00
6128;BME280;7073;42.672;23.256;2023-04-03T16:41:19;66884.56;;;-143.30;100.00
6128;BME280;7073;42.672;23.256;2023-04-03T16:43:57;93369.34;;;9.79;100.00
6128;BME280;7073;42.672;23.256;2023-04-03T16:46:25;66884.56;;;-143.30;100.00
6128;BME280;7073;42.672;23.256;2023-04-03T16:48:53;66884.56;;;-143.30;100.00
6128;BME280;7073;42.672;23.256;2023-04-03T16:51:20;66884.56;;;-143.30;100.00
6128;BME280;7073;42.672;23.256;2023-04-03T16:53:47;66884.56;;;-143.30;100.00
6128;BME280;7073;42.672;23.256;2023-04-03T16:56:14;66884.56;;;-143.30;100.00
6128;BME280;7073;42.672;23.256;2023-04-03T16:58:41;66884.56;;;-143.30;100.00
6128;BME280;7073;42.672;23.256;2023-04-03T17:01:14;93369.34;;;9.79;100.00
6128;BME280;7073;42.672;23.256;2023-04-03T17:03:41;93270.56;;;9.35;100.00
6128;BME280;7073;42.672;23.256;2023-04-03T17:06:11;93270.56;;;9.35;100.00
6128;BME280;7073;42.672;23.256;2023-04-03T17:08:41;93270.56;;;9.35;100.00
6128;BME280;7073;42.672;23.256;2023-04-03T17:11:08;66884.56;;;-143.30;78.19
6128;BME280;7073;42.672;23.256;2023-04-03T17:13:35;66884.56;;;-143.30;100.00
6128;BME280;7073;42.672;23.256;2023-04-03T17:16:02;66884.56;;;-143.30;100.00
6128;BME280;7073;42.672;23.256;2023-04-03T17:18:33;66884.56;;;-143.30;100.00
6128;BME280;7073;42.672;23.256;2023-04-03T17:21:01;66884.56;;;-143.30;100.00
6128;BME280;7073;42.672;23.256;2023-04-03T17:23:28;66884.56;;;-143.30;100.00
6128;BME280;7073;42.672;23.256;2023-04-03T17:25:56;66884.56;;;-143.30;100.00
6128;BME280;7073;42.672;23.256;2023-04-03T17:28:23;66884.56;;;-143.30;100.00
6128;BME280;7073;42.672;23.256;2023-04-03T17:30:53;66884.56;;;-143.30;100.00
6128;BME280;7073;42.672;23.256;2023-04-03T17:33:20;66884.56;;;-143.30;100.00
6128;BME280;7073;42.672;23.256;2023-04-03T17:35:48;93270.56;;;9.35;100.00
6128;BME280;7073;42.672;23.256;2023-04-03T17:38:15;66884.56;;;-143.30;100.00
6128;BME280;7073;42.672;23.256;2023-04-03T17:40:42;66884.56;;;-143.30;100.00
6128;BME280;7073;42.672;23.256;2023-04-03T17:43:09;66884.56;;;-143.30;100.00
6128;BME280;7073;42.672;23.256;2023-04-03T17:45:36;66884.56;;;-143.30;100.00
6128;BME280;7073;42.672;23.256;2023-04-03T17:48:03;66884.56;;;-143.30;100.00
6128;BME280;7073;42.672;23.256;2023-04-03T17:50:30;66884.56;;;-143.30;100.00
6128;BME280;7073;42.672;23.256;2023-04-03T17:52:58;66884.56;;;-143.30;100.00
6128;BME280;7073;42.672;23.256;2023-04-03T17:55:25;66884.56;;;-143.30;100.00
6128;BME280;7073;42.672;23.256;2023-04-03T17:57:52;66884.56;;;-143.30;100.00
6128;BME280;7073;42.672;23.256;2023-04-03T18:00:19;66884.56;;;-143.30;100.00
6128;BME280;7073;42.672;23.256;2023-04-03T18:02:46;66884.56;;;-143.30;100.00
6128;BME280;7073;42.672;23.256;2023-04-03T18:05:12;66884.56;;;-143.30;100.00
6128;BME280;7073;42.672;23.256;2023-04-03T18:07:40;66884.56;;;-143.30;100.00
6128;BME280;7073;42.672;23.256;2023-04-03T18:10:09;66884.56;;;-143.30;100.00
6128;BME280;7073;42.672;23.256;2023-04-03T18:12:36;66884.56;;;-143.30;100.00